WMT9GR LICC-LIPZ
Flight info
| Callsign | WMT9GR |
|---|---|
| Flight time | N/A |
| Altitude | 36000 |
| Route | BUDIN DCT NAXES DCT TEA DCT LANLI/N0340F180 L612 ARDAM Z456 OTGIG |
| Aircraft | A21N/M-SDE1E2E3FGIJ1J4RWXY/LB1 |
Departure
| Time | N/A |
|---|---|
| Airport | Catania-Fontanarossa Airport (LICC) |
Arrival
| Time | 2026-04-29 16:28 |
|---|---|
| Airport | Venice Marco Polo Airport (LIPZ) |
| Time | Latitude | Longitude | Altitude | Speed | Heading |
|---|---|---|---|---|---|
| 2026-04-29 16:20 | 45.08620 | 12.24716 | 11865 ft | 387 kts | 339° |
| 2026-04-29 16:20 | 45.10159 | 12.23965 | 11644 ft | 387 kts | 339° |
| 2026-04-29 16:21 | 45.12644 | 12.22755 | 11291 ft | 367 kts | 339° |
| 2026-04-29 16:21 | 45.15003 | 12.21609 | 10968 ft | 349 kts | 339° |
| 2026-04-29 16:21 | 45.17244 | 12.20521 | 10685 ft | 334 kts | 339° |
| 2026-04-29 16:21 | 45.19393 | 12.19480 | 10414 ft | 319 kts | 339° |
| 2026-04-29 16:22 | 45.21417 | 12.18500 | 10130 ft | 292 kts | 338° |
| 2026-04-29 16:22 | 45.23325 | 12.17572 | 9930 ft | 289 kts | 338° |
| 2026-04-29 16:22 | 45.25207 | 12.16649 | 9629 ft | 286 kts | 338° |
| 2026-04-29 16:22 | 45.27122 | 12.15703 | 9110 ft | 293 kts | 339° |
| 2026-04-29 16:23 | 45.29032 | 12.14755 | 8591 ft | 290 kts | 339° |
| 2026-04-29 16:23 | 45.30934 | 12.13838 | 8101 ft | 288 kts | 344° |
| 2026-04-29 16:23 | 45.32862 | 12.13707 | 7590 ft | 265 kts | 13° |
| 2026-04-29 16:23 | 45.34416 | 12.14750 | 7191 ft | 239 kts | 38° |
| 2026-04-29 16:24 | 45.35668 | 12.16226 | 6560 ft | 228 kts | 38° |
| 2026-04-29 16:24 | 45.36786 | 12.17616 | 6258 ft | 202 kts | 42° |
| 2026-04-29 16:24 | 45.37777 | 12.18901 | 6034 ft | 177 kts | 40° |
| 2026-04-29 16:24 | 45.38669 | 12.20015 | 5639 ft | 168 kts | 40° |
| 2026-04-29 16:25 | 45.39512 | 12.21075 | 5349 ft | 150 kts | 41° |
| 2026-04-29 16:25 | 45.40329 | 12.22112 | 5219 ft | 165 kts | 40° |
| 2026-04-29 16:25 | 45.41205 | 12.23217 | 4505 ft | 168 kts | 42° |
| 2026-04-29 16:25 | 45.42048 | 12.24342 | 3854 ft | 163 kts | 43° |
| 2026-04-29 16:26 | 45.42888 | 12.25393 | 3183 ft | 161 kts | 42° |
| 2026-04-29 16:26 | 45.43713 | 12.26456 | 2497 ft | 159 kts | 44° |
| 2026-04-29 16:26 | 45.44534 | 12.27464 | 1939 ft | 151 kts | 43° |
| 2026-04-29 16:26 | 45.45273 | 12.28470 | 1549 ft | 146 kts | 46° |
| 2026-04-29 16:27 | 45.46040 | 12.29437 | 1174 ft | 148 kts | 41° |
| 2026-04-29 16:27 | 45.46808 | 12.30374 | 854 ft | 144 kts | 44° |
| 2026-04-29 16:27 | 45.47529 | 12.31349 | 579 ft | 140 kts | 42° |
| 2026-04-29 16:27 | 45.48243 | 12.32274 | 346 ft | 138 kts | 42° |
| 2026-04-29 16:28 | 45.48940 | 12.33159 | 184 ft | 134 kts | 43° |
| 2026-04-29 16:28 | 45.49632 | 12.34049 | 47 ft | 130 kts | 43° |
| 2026-04-29 16:28 | 45.50246 | 12.34848 | 15 ft | 97 kts | 42° |
| 2026-04-29 16:28 | 45.50528 | 12.35207 | 14 ft | 22 kts | 43° |
| 2026-04-29 16:29 | 45.50627 | 12.35320 | 15 ft | 15 kts | 29° |
| 2026-04-29 16:29 | 45.50696 | 12.35375 | 16 ft | 8 kts | 29° |
| 2026-04-29 16:29 | 45.50735 | 12.35398 | 16 ft | 5 kts | 21° |
| 2026-04-29 16:29 | 45.50767 | 12.35416 | 16 ft | 5 kts | 22° |
| 2026-04-29 16:30 | 45.50809 | 12.35429 | 16 ft | 8 kts | 9° |
| 2026-04-29 16:30 | 45.50880 | 12.35451 | 16 ft | 12 kts | 8° |
| 2026-04-29 16:30 | 45.50970 | 12.35426 | 19 ft | 15 kts | 315° |
| 2026-04-29 16:30 | 45.50969 | 12.35277 | 17 ft | 16 kts | 257° |
| 2026-04-29 16:31 | 45.50916 | 12.35151 | 16 ft | 14 kts | 223° |
| 2026-04-29 16:31 | 45.50842 | 12.35058 | 16 ft | 14 kts | 222° |
| 2026-04-29 16:31 | 45.50769 | 12.34963 | 16 ft | 14 kts | 221° |
| 2026-04-29 16:31 | 45.50694 | 12.34868 | 16 ft | 14 kts | 221° |
| 2026-04-29 16:32 | 45.50624 | 12.34771 | 16 ft | 14 kts | 233° |
| 2026-04-29 16:32 | 45.50606 | 12.34685 | 16 ft | 13 kts | 264° |
| 2026-04-29 16:32 | 45.50600 | 12.34524 | 16 ft | 11 kts | 267° |
| 2026-04-29 16:32 | 45.50591 | 12.34425 | 16 ft | 9 kts | 245° |
| 2026-04-29 16:33 | 45.50523 | 12.34342 | 16 ft | 4 kts | 197° |
| 2026-04-29 16:33 | 45.50501 | 12.34328 | 16 ft | 3 kts | 215° |
| 2026-04-29 16:33 | 45.50495 | 12.34305 | 16 ft | 3 kts | 250° |
| 2026-04-29 16:34 | 45.50494 | 12.34277 | 16 ft | 3 kts | 267° |
| 2026-04-29 16:34 | 45.50492 | 12.34240 | 16 ft | 4 kts | 267° |
| 2026-04-29 16:34 | 45.50492 | 12.34227 | 16 ft | 0 kts | 267° |